Time;durP1;ratioP1;P1;durP2;ratioP2;P2;SDS_P1;SDS_P2;PMS_P1;PMS_P2;Temp;Humidity;BMP_temperature;BMP_pressure;BME280_temperature;BME280_humidity;BME280_pressure;Samples;Min_cycle;Max_cycle;Signal;HPM_P1;HPM_P2
2020/12/02 00:03:27;;;;;;;20.63;17.15;;;;;;;4.87;100.00;101330.66;10501156;28;20381;-70
2020/12/02 00:08:36;;;;;;;20.55;15.82;;;;;;;4.90;100.00;101325.41;10460707;28;20042;-71
2020/12/02 00:13:40;;;;;;;22.23;15.77;;;;;;;4.85;100.00;101315.00;10426152;28;20063;-71
2020/12/02 00:18:41;;;;;;;18.83;14.68;;;;;;;4.86;100.00;101314.13;10453325;28;20106;-70
2020/12/02 00:23:42;;;;;;;20.10;14.88;;;;;;;4.72;100.00;101296.84;10459124;28;20459;-71
2020/12/02 00:28:44;;;;;;;17.83;13.88;;;;;;;4.66;100.00;101310.84;10457141;28;20040;-71
2020/12/02 00:33:46;;;;;;;18.63;13.95;;;;;;;4.72;100.00;101313.38;10436965;28;20499;-71
2020/12/02 00:38:47;;;;;;;19.90;14.68;;;;;;;4.81;100.00;101312.44;10457669;28;20071;-70
2020/12/02 00:43:48;;;;;;;17.83;13.65;;;;;;;4.82;100.00;101307.22;10449731;28;20037;-71
2020/12/02 00:48:52;;;;;;;15.32;12.38;;;;;;;4.84;100.00;101309.81;10398915;28;20056;-70
2020/12/02 00:53:56;;;;;;;22.20;16.10;;;;;;;4.84;100.00;101307.19;10418961;28;20041;-70
2020/12/02 00:59:09;;;;;;;15.50;12.48;;;;;;;4.93;100.00;101317.56;10420550;28;20059;-70
2020/12/02 01:04:17;;;;;;;16.80;12.85;;;;;;;4.81;100.00;101310.69;10460477;28;20032;-71
2020/12/02 01:09:19;;;;;;;20.73;13.80;;;;;;;4.93;100.00;101318.41;10476520;28;20111;-70
2020/12/02 01:14:21;;;;;;;19.65;13.35;;;;;;;4.99;100.00;101314.00;10445339;28;20045;-70
2020/12/02 01:19:29;;;;;;;18.48;13.65;;;;;;;5.03;100.00;101311.34;10438872;28;20037;-71
2020/12/02 01:24:36;;;;;;;17.63;13.73;;;;;;;5.02;100.00;101303.53;10457220;28;20056;-71
2020/12/02 01:29:39;;;;;;;16.52;12.45;;;;;;;4.94;100.00;101309.69;10456201;28;20049;-70
2020/12/02 01:34:40;;;;;;;19.17;12.75;;;;;;;4.95;100.00;101318.38;10456467;28;20127;-70
2020/12/02 01:39:47;;;;;;;23.67;16.15;;;;;;;4.89;100.00;101306.25;10464875;28;20043;-71
2020/12/02 01:44:49;;;;;;;16.75;12.73;;;;;;;4.82;100.00;101303.72;10497184;28;20044;-70
2020/12/02 01:50:21;;;;;;;20.65;14.98;;;;;;;4.87;100.00;101314.97;10497406;28;20047;-71
2020/12/02 01:55:29;;;;;;;19.73;14.43;;;;;;;4.72;100.00;101309.91;10486867;28;20034;-71
2020/12/02 02:00:36;;;;;;;18.90;13.88;;;;;;;4.70;100.00;101312.53;10449958;28;20516;-71
2020/12/02 02:05:56;;;;;;;21.65;15.23;;;;;;;4.76;100.00;101314.25;10465293;28;20052;-71
2020/12/02 02:10:59;;;;;;;19.75;14.02;;;;;;;4.68;100.00;101310.84;10446206;28;20358;-71
2020/12/02 02:16:05;;;;;;;19.35;15.00;;;;;;;4.68;100.00;101305.59;10414734;28;20041;-71
2020/12/02 02:21:14;;;;;;;20.27;15.85;;;;;;;4.70;100.00;101303.81;10422054;28;20409;-71
2020/12/02 02:26:15;;;;;;;20.55;13.80;;;;;;;4.82;100.00;101309.81;10429081;28;20499;-71
2020/12/02 02:31:20;;;;;;;17.98;14.07;;;;;;;4.86;100.00;101311.50;10447252;28;20037;-70
2020/12/02 02:36:26;;;;;;;22.10;15.40;;;;;;;4.73;100.00;101295.97;10432052;28;20041;-71
2020/12/02 02:41:28;;;;;;;20.85;16.00;;;;;;;4.74;100.00;101293.38;10453978;28;20041;-71
2020/12/02 02:46:29;;;;;;;24.77;19.02;;;;;;;4.65;100.00;101298.66;10451111;28;20037;-71
2020/12/02 02:51:31;;;;;;;22.88;16.85;;;;;;;4.71;100.00;101292.50;10454712;28;20045;-70
2020/12/02 02:56:32;;;;;;;26.83;18.35;;;;;;;4.75;100.00;101291.63;10452879;28;20098;-71
2020/12/02 03:01:34;;;;;;;23.15;17.05;;;;;;;4.64;100.00;101289.09;10426916;28;20461;-71
2020/12/02 03:06:36;;;;;;;19.67;14.18;;;;;;;4.70;100.00;101285.56;10465126;28;20045;-70
2020/12/02 03:11:39;;;;;;;22.88;15.98;;;;;;;4.65;100.00;101297.78;10495182;28;20072;-71
2020/12/02 03:16:45;;;;;;;23.52;15.70;;;;;;;4.72;100.00;101299.47;10487673;28;20045;-70
2020/12/02 03:21:48;;;;;;;23.50;15.02;;;;;;;4.78;100.00;101302.88;10454114;28;20045;-71
2020/12/02 03:26:50;;;;;;;20.75;14.73;;;;;;;4.79;100.00;101293.31;10460359;28;20052;-71
2020/12/02 03:31:51;;;;;;;20.80;14.43;;;;;;;4.86;100.00;101288.00;10460100;28;20060;-71
2020/12/02 03:36:52;;;;;;;22.63;15.55;;;;;;;4.89;100.00;101285.38;10442846;28;20493;-71
2020/12/02 03:41:53;;;;;;;21.85;15.82;;;;;;;4.91;100.00;101283.63;10459980;28;20033;-71
2020/12/02 03:46:54;;;;;;;22.95;15.65;;;;;;;4.71;100.00;101272.50;10457418;28;20060;-71
2020/12/02 03:51:56;;;;;;;20.20;15.07;;;;;;;4.82;100.00;101273.28;10460411;28;20047;-70
2020/12/02 03:56:57;;;;;;;17.33;13.05;;;;;;;4.86;100.00;101272.34;10461927;28;20041;-71
2020/12/02 04:01:58;;;;;;;21.55;14.07;;;;;;;4.90;100.00;101271.44;10454665;28;20044;-71
2020/12/02 04:06:59;;;;;;;16.65;11.80;;;;;;;4.91;100.00;101256.66;10485966;28;20051;-71
2020/12/02 04:12:00;;;;;;;18.55;13.43;;;;;;;4.91;100.00;101251.44;10500831;28;20496;-71
2020/12/02 04:17:01;;;;;;;15.30;10.88;;;;;;;4.80;100.00;101246.31;10472293;28;20052;-71
2020/12/02 04:22:02;;;;;;;18.27;12.23;;;;;;;4.77;100.00;101245.50;10459543;28;20052;-71
2020/12/02 04:27:05;;;;;;;16.63;12.00;;;;;;;4.82;100.00;101241.09;10449255;28;20041;-71
2020/12/02 04:32:06;;;;;;;17.58;12.63;;;;;;;4.91;100.00;101247.06;10444563;28;20041;-71
2020/12/02 04:37:07;;;;;;;16.42;12.40;;;;;;;4.90;100.00;101242.72;10457999;28;20044;-71
2020/12/02 04:42:09;;;;;;;17.13;12.60;;;;;;;4.84;100.00;101234.09;10436148;28;20056;-71
2020/12/02 04:47:11;;;;;;;15.25;11.43;;;;;;;4.85;100.00;101243.66;10416609;28;20044;-70
2020/12/02 04:52:14;;;;;;;16.23;12.38;;;;;;;4.85;100.00;101236.66;10414732;28;20042;-71
2020/12/02 04:57:16;;;;;;;17.05;11.50;;;;;;;4.55;100.00;101231.78;10443016;28;20064;-71
2020/12/02 05:02:29;;;;;;;19.92;13.48;;;;;;;4.44;100.00;101244.03;10457258;28;20037;-71
2020/12/02 05:07:30;;;;;;;18.88;13.93;;;;;;;4.58;100.00;101253.50;10487780;28;20063;-72
2020/12/02 05:12:38;;;;;;;16.08;12.25;;;;;;;4.39;100.00;101233.66;10497871;28;20120;-71
2020/12/02 05:17:39;;;;;;;16.63;13.45;;;;;;;4.59;100.00;101249.16;10482937;28;20044;-71
2020/12/02 05:22:45;;;;;;;15.55;10.63;;;;;;;4.54;100.00;101243.97;10478001;28;20118;-71
2020/12/02 05:27:51;;;;;;;13.18;10.00;;;;;;;4.52;100.00;101239.63;10474451;28;20041;-71
2020/12/02 05:33:07;;;;;;;13.93;9.77;;;;;;;4.49;100.00;101232.72;10487974;28;20408;-71
2020/12/02 05:38:19;;;;;;;15.10;11.45;;;;;;;4.67;100.00;101239.50;10483655;28;20106;-71
2020/12/02 05:43:33;;;;;;;14.73;10.75;;;;;;;4.60;100.00;101231.75;10455923;28;20404;-71
2020/12/02 05:48:40;;;;;;;14.93;10.45;;;;;;;4.67;100.00;101223.84;10473358;28;20044;-70
2020/12/02 05:53:59;;;;;;;12.35;10.00;;;;;;;4.61;100.00;101221.28;10453511;28;20491;-70
2020/12/02 05:59:01;;;;;;;16.25;11.45;;;;;;;4.59;100.00;101217.84;10439898;28;20057;-71
2020/12/02 06:04:02;;;;;;;12.50;9.80;;;;;;;4.69;100.00;101211.63;10462252;28;20086;-71
2020/12/02 06:09:04;;;;;;;16.35;12.02;;;;;;;4.73;100.00;101210.72;10456871;28;20044;-70
2020/12/02 06:14:11;;;;;;;16.98;11.50;;;;;;;4.58;100.00;101205.66;10440857;28;20119;-71
2020/12/02 06:19:18;;;;;;;20.92;13.98;;;;;;;4.68;100.00;101211.66;10454778;28;20131;-71
2020/12/02 06:24:33;;;;;;;13.10;11.18;;;;;;;4.57;100.00;101206.53;10447875;28;20062;-71
2020/12/02 06:29:36;;;;;;;13.98;11.30;;;;;;;4.63;100.00;101206.47;10450462;28;20041;-70
2020/12/02 06:34:38;;;;;;;16.27;12.20;;;;;;;4.48;100.00;101199.66;10459661;28;20041;-71
2020/12/02 06:39:42;;;;;;;16.20;12.23;;;;;;;4.38;100.00;101208.47;10454465;28;20045;-71
2020/12/02 06:44:59;;;;;;;17.73;13.00;;;;;;;4.11;100.00;101201.72;10454215;28;20041;-71
2020/12/02 06:50:07;;;;;;;17.38;12.18;;;;;;;4.18;100.00;101205.19;10462112;28;20040;-71
2020/12/02 06:55:18;;;;;;;19.52;13.73;;;;;;;4.39;100.00;101222.38;10463547;28;20044;-72
2020/12/02 07:00:24;;;;;;;43.65;24.67;;;;;;;4.36;100.00;101212.81;10441528;28;20057;-74
2020/12/02 07:05:28;;;;;;;27.02;16.90;;;;;;;4.14;100.00;101201.72;10446611;28;20041;-69
2020/12/02 07:10:29;;;;;;;26.80;17.50;;;;;;;4.19;100.00;101206.88;10495648;28;20403;-69
2020/12/02 07:15:30;;;;;;;43.78;25.63;;;;;;;4.19;100.00;101193.84;10483266;28;20500;-69
2020/12/02 07:20:31;;;;;;;19.08;13.93;;;;;;;4.24;100.00;101199.91;10471075;28;20046;-70
2020/12/02 07:25:33;;;;;;;36.75;22.40;;;;;;;4.17;100.00;101195.63;10474570;28;20365;-69
2020/12/02 07:30:38;;;;;;;22.55;16.15;;;;;;;4.31;100.00;101201.56;10476076;28;20167;-68
2020/12/02 07:35:40;;;;;;;17.05;12.05;;;;;;;4.40;100.00;101205.84;10502042;28;20048;-69
2020/12/02 07:40:42;;;;;;;18.63;13.77;;;;;;;4.35;100.00;101192.00;10483756;28;20045;-69
2020/12/02 07:45:43;;;;;;;19.38;14.30;;;;;;;4.43;100.00;101198.00;10463882;28;20432;-69
2020/12/02 07:50:47;;;;;;;23.92;17.20;;;;;;;4.45;100.00;101204.91;10459855;28;20048;-69
2020/12/02 07:55:51;;;;;;;20.13;14.43;;;;;;;4.50;100.00;101194.44;10455400;28;20041;-70
2020/12/02 08:00:53;;;;;;;20.00;14.30;;;;;;;4.50;100.00;101202.28;10493811;28;20510;-69
2020/12/02 08:06:05;;;;;;;23.92;16.65;;;;;;;4.39;100.00;101199.75;10500487;28;20046;-70
2020/12/02 08:11:15;;;;;;;20.90;16.00;;;;;;;4.51;100.00;101202.25;10500372;28;20036;-71
2020/12/02 08:16:42;;;;;;;21.55;16.00;;;;;;;4.48;100.00;101204.03;10490354;28;20048;-70
2020/12/02 08:21:50;;;;;;;26.35;17.25;;;;;;;4.38;100.00;101184.97;10457424;28;20388;-71
2020/12/02 08:26:52;;;;;;;24.13;17.15;;;;;;;4.40;100.00;101188.44;10448318;28;20032;-71
2020/12/02 08:32:30;;;;;;;22.33;17.08;;;;;;;4.34;100.00;101191.13;10457645;28;20504;-70
2020/12/02 08:37:38;;;;;;;23.73;17.77;;;;;;;4.33;100.00;101191.13;10432903;28;20491;-70
2020/12/02 08:42:41;;;;;;;26.08;18.90;;;;;;;4.34;100.00;101183.31;10452990;28;20098;-71
2020/12/02 08:47:43;;;;;;;21.38;16.20;;;;;;;4.46;100.00;101193.59;10498398;28;20045;-70
2020/12/02 08:52:50;;;;;;;22.20;17.83;;;;;;;4.40;100.00;101166.72;10463472;28;20395;-70
2020/12/02 08:57:52;;;;;;;19.85;15.55;;;;;;;4.41;100.00;101164.09;10467473;28;20106;-70
2020/12/02 09:02:53;;;;;;;23.90;18.02;;;;;;;4.58;100.00;101167.41;10475579;28;20048;-68
2020/12/02 09:07:54;;;;;;;20.85;15.82;;;;;;;4.38;100.00;101150.19;10487599;28;20040;-68
2020/12/02 09:12:56;;;;;;;20.35;16.38;;;;;;;4.35;100.00;101158.09;10473999;28;20435;-68
2020/12/02 09:17:58;;;;;;;22.88;16.45;;;;;;;4.48;100.00;101157.06;10473181;28;20488;-68
2020/12/02 09:22:59;;;;;;;24.30;18.70;;;;;;;4.45;100.00;101157.09;10471884;28;20035;-68
2020/12/02 09:28:00;;;;;;;21.77;17.13;;;;;;;4.56;100.00;101148.28;10469996;28;20044;-68
2020/12/02 09:33:02;;;;;;;23.40;18.58;;;;;;;4.47;100.00;101137.94;10473043;28;20068;-68
2020/12/02 09:38:03;;;;;;;22.20;16.73;;;;;;;4.49;100.00;101144.00;10454585;28;20040;-69
2020/12/02 09:43:36;;;;;;;20.02;16.38;;;;;;;4.70;100.00;101131.59;10432765;28;20045;-69
2020/12/02 09:48:37;;;;;;;20.90;16.73;;;;;;;4.82;100.00;101127.09;10450005;28;20043;-68
2020/12/02 09:53:38;;;;;;;23.52;17.60;;;;;;;4.79;100.00;101115.81;10431458;28;20064;-69
2020/12/02 09:58:40;;;;;;;20.08;16.00;;;;;;;4.89;100.00;101112.22;10425959;28;20045;-69
2020/12/02 10:03:59;;;;;;;17.67;14.80;;;;;;;4.48;100.00;101095.31;10440593;28;20101;-68
2020/12/02 10:09:28;;;;;;;17.30;14.50;;;;;;;4.48;100.00;101097.06;10425794;28;20049;-68
2020/12/02 10:14:55;;;;;;;17.15;14.18;;;;;;;4.64;100.00;101095.13;10436030;28;20045;-69
2020/12/02 10:20:13;;;;;;;19.15;14.55;;;;;;;4.65;100.00;101082.06;10445741;28;20476;-69
2020/12/02 10:25:47;;;;;;;20.42;15.13;;;;;;;4.62;100.00;101076.00;10447011;28;20080;-69
2020/12/02 10:31:01;;;;;;;17.92;13.75;;;;;;;4.51;100.00;101058.78;10452856;28;20048;-68
2020/12/02 10:36:03;;;;;;;16.55;13.23;;;;;;;4.47;100.00;101053.59;10452077;28;20052;-68
2020/12/02 10:41:35;;;;;;;18.85;15.32;;;;;;;4.54;100.00;101050.00;10462034;28;20103;-68
2020/12/02 10:46:55;;;;;;;21.33;15.90;;;;;;;4.70;100.00;101038.50;10462145;28;20044;-68
2020/12/02 10:51:59;;;;;;;22.90;19.58;;;;;;;4.53;100.00;101020.44;10466018;28;20056;-67
2020/12/02 10:57:05;;;;;;;25.10;20.20;;;;;;;4.60;100.00;101020.41;10480600;28;20129;-68
2020/12/02 11:02:16;;;;;;;19.88;16.77;;;;;;;4.47;100.00;101002.28;10478463;28;20045;-68
2020/12/02 11:07:52;;;;;;;21.55;17.30;;;;;;;4.72;100.00;101005.41;10475840;28;20040;-68
2020/12/02 11:13:05;;;;;;;18.88;15.65;;;;;;;4.69;100.00;101000.22;10449082;28;20481;-68
2020/12/02 11:18:47;;;;;;;17.17;14.75;;;;;;;4.50;100.00;100988.34;10471576;28;20037;-68
2020/12/02 11:24:14;;;;;;;19.98;15.40;;;;;;;4.64;100.00;100975.09;10425851;28;20070;-68
2020/12/02 11:29:19;;;;;;;18.77;14.80;;;;;;;4.29;100.00;100947.75;10473343;28;20055;-68
2020/12/02 11:34:29;;;;;;;16.58;13.38;;;;;;;4.45;100.00;100959.69;10475312;28;20040;-68
2020/12/02 11:39:50;;;;;;;15.75;12.48;;;;;;;4.40;100.00;100955.44;10475735;28;20045;-68
2020/12/02 11:45:06;;;;;;;15.82;11.80;;;;;;;4.41;100.00;100957.16;10474471;28;20431;-68
2020/12/02 11:50:17;;;;;;;13.77;12.07;;;;;;;4.55;100.00;100942.16;10460297;28;20045;-68
2020/12/02 11:55:20;;;;;;;14.43;11.98;;;;;;;4.71;100.00;100942.81;10472480;28;20037;-68
2020/12/02 12:00:21;;;;;;;13.13;10.02;;;;;;;4.56;100.00;100938.69;10474718;28;20058;-69
2020/12/02 12:05:32;;;;;;;12.48;10.90;;;;;;;4.55;100.00;100927.38;10460117;28;20507;-69
2020/12/02 12:10:41;;;;;;;13.30;10.80;;;;;;;4.65;100.00;100916.81;10465341;28;20404;-70
2020/12/02 12:15:46;;;;;;;10.93;9.40;;;;;;;4.63;100.00;100921.19;10422520;28;20045;-70
2020/12/02 12:20:54;;;;;;;11.38;9.35;;;;;;;4.47;100.00;100887.50;10451478;28;20464;-70
2020/12/02 12:25:56;;;;;;;11.90;10.02;;;;;;;4.62;100.00;100894.22;10444282;28;20489;-70
2020/12/02 12:31:04;;;;;;;12.52;10.65;;;;;;;4.58;100.00;100882.13;10422508;28;20053;-70
2020/12/02 12:36:20;;;;;;;13.50;11.23;;;;;;;4.70;100.00;100884.53;10448456;28;20060;-69
2020/12/02 12:41:52;;;;;;;13.32;11.88;;;;;;;4.62;100.00;100875.09;10458834;28;20045;-69
2020/12/02 12:47:13;;;;;;;13.68;11.32;;;;;;;4.56;100.00;100853.44;10456312;28;20100;-68
2020/12/02 12:52:23;;;;;;;12.43;9.95;;;;;;;4.61;100.00;100848.13;10417506;28;20100;-68
2020/12/02 12:57:27;;;;;;;11.90;10.07;;;;;;;4.64;100.00;100842.88;10413683;28;20049;-68
2020/12/02 13:02:34;;;;;;;13.85;11.68;;;;;;;4.63;100.00;100837.69;10431134;28;20037;-69
2020/12/02 13:07:38;;;;;;;15.27;12.70;;;;;;;4.68;100.00;100830.66;10488040;28;20052;-68
2020/12/02 13:13:21;;;;;;;16.87;13.07;;;;;;;4.60;100.00;100832.53;10486824;28;20051;-68
2020/12/02 13:19:02;;;;;;;14.10;12.25;;;;;;;4.61;100.00;100826.41;10412300;28;20751;-68
2020/12/02 13:24:17;;;;;;;15.43;12.93;;;;;;;4.48;100.00;100813.56;10456437;28;20049;-68
2020/12/02 13:29:50;;;;;;;14.47;12.90;;;;;;;4.55;100.00;100812.59;10456846;28;20044;-68
2020/12/02 13:34:54;;;;;;;14.85;12.82;;;;;;;4.46;100.00;100791.84;10438194;28;20483;-68
2020/12/02 13:39:55;;;;;;;14.97;12.73;;;;;;;4.61;100.00;100809.00;10456567;28;20131;-69
2020/12/02 13:45:18;;;;;;;12.85;11.27;;;;;;;4.56;100.00;100798.66;10455440;28;20045;-69
2020/12/02 13:50:26;;;;;;;15.13;12.70;;;;;;;4.46;100.00;100794.47;10455737;28;20048;-68
2020/12/02 13:55:29;;;;;;;13.98;11.90;;;;;;;4.64;100.00;100798.53;10440253;28;20480;-68
2020/12/02 14:00:52;;;;;;;14.38;12.13;;;;;;;4.52;100.00;100790.88;10430278;28;20139;-68
2020/12/02 14:06:05;;;;;;;14.90;12.95;;;;;;;4.50;100.00;100779.63;10431236;28;20052;-68
2020/12/02 14:11:09;;;;;;;14.00;11.85;;;;;;;4.40;100.00;100778.06;10424151;28;20110;-68
2020/12/02 14:16:11;;;;;;;13.90;11.35;;;;;;;4.47;100.00;100777.94;10415685;28;20110;-68
2020/12/02 14:21:12;;;;;;;16.70;12.13;;;;;;;4.46;100.00;100772.75;10422068;28;20045;-68
2020/12/02 14:26:13;;;;;;;15.20;12.57;;;;;;;4.46;100.00;100762.31;10420818;28;20045;-68
2020/12/02 14:31:14;;;;;;;16.83;14.15;;;;;;;4.47;100.00;100764.03;10454206;28;20045;-68
2020/12/02 14:36:15;;;;;;;18.63;15.95;;;;;;;4.42;100.00;100763.25;10457957;28;20532;-68
2020/12/02 14:41:20;;;;;;;17.02;14.00;;;;;;;4.29;100.00;100744.31;10452665;28;20048;-68
2020/12/02 14:46:21;;;;;;;20.38;15.57;;;;;;;4.33;100.00;100750.38;10412879;28;20045;-68
2020/12/02 14:51:22;;;;;;;18.13;14.50;;;;;;;4.31;100.00;100749.53;10417142;28;20049;-68
2020/12/02 14:56:53;;;;;;;18.50;14.70;;;;;;;4.07;100.00;100733.41;10433085;28;20128;-68
2020/12/02 15:01:54;;;;;;;17.48;13.93;;;;;;;4.09;100.00;100739.44;10454045;28;20079;-68
2020/12/02 15:07:06;;;;;;;17.73;14.95;;;;;;;4.16;100.00;100732.38;10454163;28;20045;-68
2020/12/02 15:12:10;;;;;;;18.95;14.82;;;;;;;4.20;100.00;100737.50;10416948;28;20049;-68
2020/12/02 15:17:11;;;;;;;15.27;12.50;;;;;;;4.24;100.00;100732.25;10416640;28;20053;-68
2020/12/02 15:22:16;;;;;;;15.90;13.77;;;;;;;4.16;100.00;100728.03;10460856;28;20750;-68
2020/12/02 15:27:27;;;;;;;16.58;14.68;;;;;;;4.20;100.00;100729.69;10461761;28;20041;-68
2020/12/02 15:32:33;;;;;;;16.83;13.40;;;;;;;4.20;100.00;100707.97;10460271;28;20041;-68
2020/12/02 15:37:48;;;;;;;16.80;13.80;;;;;;;4.19;100.00;100714.06;10461147;28;20037;-68
2020/12/02 15:43:22;;;;;;;15.95;11.70;;;;;;;4.23;100.00;100710.53;10455184;28;20503;-69
2020/12/02 15:48:29;;;;;;;17.77;14.15;;;;;;;4.17;100.00;100706.28;10437065;28;20477;-68
2020/12/02 15:54:06;;;;;;;20.38;15.60;;;;;;;4.15;100.00;100701.97;10460192;28;20037;-68
2020/12/02 15:59:42;;;;;;;19.52;15.55;;;;;;;4.16;100.00;100701.97;10480521;28;20072;-69
2020/12/02 16:04:45;;;;;;;20.37;15.50;;;;;;;4.13;100.00;100706.34;10422022;28;20033;-68
2020/12/02 16:09:51;;;;;;;20.38;15.57;;;;;;;4.15;100.00;100709.81;10435573;28;20048;-68
2020/12/02 16:14:59;;;;;;;21.25;16.35;;;;;;;4.10;100.00;100694.22;10423756;28;20041;-68
2020/12/02 16:20:00;;;;;;;22.42;18.20;;;;;;;4.10;100.00;100680.34;10452614;28;20044;-68
2020/12/02 16:25:01;;;;;;;25.08;19.88;;;;;;;4.11;100.00;100682.91;10417043;28;20052;-68
2020/12/02 16:30:05;;;;;;;20.98;16.33;;;;;;;3.99;100.00;100666.63;10457165;28;20409;-68
2020/12/02 16:35:06;;;;;;;21.77;16.33;;;;;;;4.01;100.00;100667.47;10457859;28;20041;-69
2020/12/02 16:40:13;;;;;;;21.02;16.13;;;;;;;3.94;100.00;100665.81;10432898;28;20042;-69
2020/12/02 16:45:41;;;;;;;22.60;16.38;;;;;;;3.87;100.00;100656.38;10421943;28;20045;-68
2020/12/02 16:50:59;;;;;;;19.05;15.15;;;;;;;3.86;100.00;100665.94;10419168;28;20059;-68
2020/12/02 16:56:27;;;;;;;22.60;15.98;;;;;;;3.92;100.00;100663.28;10454203;28;20041;-68
2020/12/02 17:01:29;;;;;;;20.48;16.08;;;;;;;3.85;100.00;100659.00;10456306;28;20049;-68
2020/12/02 17:06:34;;;;;;;21.55;17.40;;;;;;;3.80;100.00;100645.22;10444171;28;20049;-68
2020/12/02 17:11:49;;;;;;;23.52;18.52;;;;;;;3.79;100.00;100633.06;10452510;28;20052;-68
2020/12/02 17:16:59;;;;;;;24.83;17.60;;;;;;;3.80;100.00;100640.84;10455516;28;20404;-68
2020/12/02 17:22:30;;;;;;;26.05;19.80;;;;;;;3.79;100.00;100633.06;10456501;28;20362;-68
2020/12/02 17:27:49;;;;;;;28.08;20.48;;;;;;;3.79;100.00;100635.66;10455774;28;20053;-68
2020/12/02 17:33:09;;;;;;;28.60;21.35;;;;;;;3.69;100.00;100628.88;10456155;28;20045;-69
2020/12/02 17:38:49;;;;;;;30.90;22.80;;;;;;;3.67;100.00;100618.50;10454651;28;20037;-68
2020/12/02 17:43:56;;;;;;;28.17;21.33;;;;;;;3.67;100.00;100625.47;10408522;28;20045;-69
2020/12/02 17:49:27;;;;;;;28.55;21.00;;;;;;;3.66;100.00;100615.91;10413188;28;20048;-69
2020/12/02 17:54:28;;;;;;;29.13;20.92;;;;;;;3.74;100.00;100627.94;10426426;28;20067;-69
2020/12/02 17:59:34;;;;;;;29.52;22.17;;;;;;;3.63;100.00;100613.34;10448120;28;20056;-69
2020/12/02 18:04:41;;;;;;;;;;;;;;;3.61;100.00;100620.31;10440737;28;20048;-69
2020/12/02 18:09:55;;;;;;;29.67;21.30;;;;;;;3.69;100.00;100621.06;10454866;28;19924;-69
2020/12/02 18:15:05;;;;;;;30.80;21.30;;;;;;;3.60;100.00;100616.03;10413494;28;20049;-69
2020/12/02 18:20:45;;;;;;;30.17;22.42;;;;;;;3.53;100.00;100602.22;10425357;28;20037;-69
2020/12/02 18:26:17;;;;;;;27.23;19.40;;;;;;;3.57;100.00;100611.72;10454841;28;20041;-69
2020/12/02 18:31:32;;;;;;;30.88;20.85;;;;;;;3.61;100.00;100615.13;10453477;28;20045;-69
2020/12/02 18:36:40;;;;;;;28.73;20.23;;;;;;;3.48;100.00;100608.38;10453245;28;20501;-69
2020/12/02 18:41:50;;;;;;;30.92;21.70;;;;;;;3.52;100.00;100603.09;10454253;28;20048;-69
2020/12/02 18:47:09;;;;;;;30.35;22.00;;;;;;;3.40;100.00;100588.53;10454465;28;20056;-69
2020/12/02 18:52:13;;;;;;;27.85;20.45;;;;;;;3.38;100.00;100585.09;10423602;28;20124;-69
2020/12/02 18:57:32;;;;;;;29.73;19.60;;;;;;;3.37;100.00;100583.38;10415303;28;20053;-71
2020/12/02 19:02:33;;;;;;;28.02;19.45;;;;;;;3.40;100.00;100578.13;10429952;28;20041;-71
2020/12/02 19:07:37;;;;;;;27.05;19.70;;;;;;;3.32;100.00;100574.78;10461221;28;20052;-71
2020/12/02 19:12:46;;;;;;;27.23;17.30;;;;;;;3.28;100.00;100562.69;10461022;28;20041;-71
2020/12/02 19:18:12;;;;;;;29.92;19.85;;;;;;;3.33;100.00;100565.22;10470108;28;20052;-71
2020/12/02 19:23:44;;;;;;;29.08;19.27;;;;;;;3.35;100.00;100560.81;10459766;28;20045;-71
2020/12/02 19:29:00;;;;;;;28.23;19.27;;;;;;;3.44;100.00;100566.75;10441173;28;20049;-71
2020/12/02 19:34:28;;;;;;;23.35;17.02;;;;;;;3.44;100.00;100558.94;10478709;28;20069;-71
2020/12/02 19:40:20;;;;;;;25.35;18.67;;;;;;;3.42;100.00;100559.88;10484322;28;20503;-70
2020/12/02 19:45:33;;;;;;;25.63;19.17;;;;;;;3.39;100.00;100552.09;10446219;28;20407;-70
2020/12/02 19:50:34;;;;;;;29.30;20.35;;;;;;;3.33;100.00;100549.59;10480568;28;20048;-70
2020/12/02 19:55:36;;;;;;;27.00;18.75;;;;;;;3.33;100.00;100545.25;10445236;28;20053;-71
2020/12/02 20:00:45;;;;;;;28.00;19.75;;;;;;;3.32;100.00;100540.94;10484575;28;20065;-70
2020/12/02 20:05:58;;;;;;;28.73;19.38;;;;;;;3.31;100.00;100528.78;10460005;28;20069;-71
2020/12/02 20:11:12;;;;;;;31.98;21.48;;;;;;;3.24;100.00;100521.97;10457007;28;20385;-70
2020/12/02 20:16:29;;;;;;;26.80;19.70;;;;;;;3.32;100.00;100537.47;10455566;28;20048;-71
2020/12/02 20:21:37;;;;;;;28.58;19.83;;;;;;;3.34;100.00;100533.09;10499209;28;20055;-71
2020/12/02 20:26:46;;;;;;;24.58;17.13;;;;;;;3.26;100.00;100515.00;10480471;28;20041;-71
2020/12/02 20:31:50;;;;;;;28.50;18.25;;;;;;;3.27;100.00;100514.09;10440537;28;20052;-70
2020/12/02 20:37:05;;;;;;;29.33;19.58;;;;;;;3.25;100.00;100500.25;10457805;28;20057;-71
2020/12/02 20:42:10;;;;;;;30.83;20.50;;;;;;;3.27;100.00;100503.69;10457465;28;20052;-70
2020/12/02 20:47:21;;;;;;;26.00;18.48;;;;;;;3.32;100.00;100493.19;10456572;28;20060;-70
2020/12/02 20:52:54;;;;;;;30.15;19.63;;;;;;;3.31;100.00;100491.47;10442422;28;20055;-70
2020/12/02 20:58:03;;;;;;;27.63;18.95;;;;;;;3.31;100.00;100494.09;10442894;28;20051;-70
2020/12/02 21:03:05;;;;;;;28.52;19.33;;;;;;;3.24;100.00;100488.13;10397533;28;20054;-70
2020/12/02 21:08:24;;;;;;;26.85;18.95;;;;;;;3.23;100.00;100485.53;10426110;28;20048;-70
2020/12/02 21:13:29;;;;;;;24.88;16.67;;;;;;;3.20;100.00;100477.78;10456844;28;20052;-71
2020/12/02 21:18:51;;;;;;;;;;;;;;;3.26;100.00;100478.56;10455493;28;20128;-71
2020/12/02 21:24:20;;;;;;;25.65;17.98;;;;;;;3.24;100.00;100472.50;10422113;28;19949;-70
2020/12/02 21:29:46;;;;;;;28.98;20.60;;;;;;;3.24;100.00;100475.09;10442528;28;20069;-70
2020/12/02 21:35:15;;;;;;;25.08;17.40;;;;;;;3.26;100.00;100473.34;10443067;28;20045;-71
2020/12/02 21:40:35;;;;;;;26.85;17.58;;;;;;;3.30;100.00;100461.13;10427598;28;20542;-70
2020/12/02 21:46:18;;;;;;;29.88;20.17;;;;;;;3.27;100.00;100455.97;10446387;28;20045;-70
2020/12/02 21:51:22;;;;;;;28.92;19.30;;;;;;;3.24;100.00;100449.06;10433433;28;20053;-70
2020/12/02 21:56:25;;;;;;;24.05;16.48;;;;;;;3.17;100.00;100455.28;10454495;28;20500;-71
2020/12/02 22:01:40;;;;;;;26.63;17.52;;;;;;;3.09;100.00;100436.31;10435446;28;20072;-70
2020/12/02 22:06:53;;;;;;;33.92;23.90;;;;;;;3.20;100.00;100439.59;10465178;28;20484;-71
2020/12/02 22:11:56;;;;;;;36.08;20.83;;;;;;;3.12;100.00;100415.44;10458773;28;20059;-71
2020/12/02 22:17:24;;;;;;;25.92;18.65;;;;;;;3.09;100.00;100419.84;10416299;28;20485;-71
2020/12/02 22:22:42;;;;;;;31.08;19.60;;;;;;;3.01;100.00;100415.59;10448091;28;20079;-70
2020/12/02 22:27:49;;;;;;;30.85;17.75;;;;;;;3.05;100.00;100416.44;10423142;28;20053;-71
2020/12/02 22:33:19;;;;;;;26.80;16.50;;;;;;;2.99;100.00;100408.72;10422587;28;20068;-70
2020/12/02 22:38:38;;;;;;;26.27;17.70;;;;;;;2.89;100.00;100395.00;10500683;28;20511;-71
2020/12/02 22:44:04;;;;;;;29.73;19.58;;;;;;;2.91;100.00;100393.25;10437352;28;20412;-71
2020/12/02 22:49:10;;;;;;;24.77;16.70;;;;;;;2.98;100.00;100396.59;10457707;28;20045;-70
2020/12/02 22:54:14;;;;;;;30.55;19.23;;;;;;;3.03;100.00;100400.84;10460229;28;20049;-70
2020/12/02 22:59:16;;;;;;;30.40;19.43;;;;;;;3.00;100.00;100387.03;10455108;28;20063;-71
2020/12/02 23:04:18;;;;;;;30.70;19.58;;;;;;;3.05;100.00;100393.00;10422816;28;20052;-71
2020/12/02 23:09:23;;;;;;;29.77;18.70;;;;;;;3.07;100.00;100391.25;10419973;28;20045;-71
2020/12/02 23:14:48;;;;;;;25.67;18.40;;;;;;;3.07;100.00;100380.84;10419653;28;20060;-70